RWJ YPJT-YPJT
Flight info
| Callsign | RWJ |
|---|---|
| Flight time | 0h 2m |
| Altitude | 1000 |
| Route | CIRCUITS 24R |
| Aircraft | C172/L-VGD/N |
Departure
| Time | 2026-04-27 09:06 |
|---|---|
| Airport | Perth Jandakot Airport (YPJT) |
Arrival
| Time | 2026-04-27 09:08 |
|---|---|
| Airport | Perth Jandakot Airport (YPJT) |
| Time | Latitude | Longitude | Altitude | Speed | Heading |
|---|---|---|---|---|---|
| 2026-04-27 08:53 | -32.09892 | 115.87314 | 96 ft | 0 kts | 117° |
| 2026-04-27 09:00 | -32.09892 | 115.87317 | 96 ft | 3 kts | 85° |
| 2026-04-27 09:01 | -32.09855 | 115.87312 | 96 ft | 8 kts | 23° |
| 2026-04-27 09:01 | -32.09835 | 115.87386 | 96 ft | 10 kts | 123° |
| 2026-04-27 09:01 | -32.09890 | 115.87443 | 95 ft | 13 kts | 72° |
| 2026-04-27 09:01 | -32.09828 | 115.87549 | 95 ft | 19 kts | 54° |
| 2026-04-27 09:02 | -32.09741 | 115.87691 | 95 ft | 24 kts | 56° |
| 2026-04-27 09:02 | -32.09648 | 115.87844 | 95 ft | 23 kts | 54° |
| 2026-04-27 09:02 | -32.09570 | 115.87971 | 94 ft | 18 kts | 56° |
| 2026-04-27 09:02 | -32.09489 | 115.88103 | 95 ft | 22 kts | 54° |
| 2026-04-27 09:03 | -32.09396 | 115.88257 | 94 ft | 15 kts | 54° |
| 2026-04-27 09:03 | -32.09338 | 115.88352 | 93 ft | 17 kts | 55° |
| 2026-04-27 09:03 | -32.09269 | 115.88466 | 94 ft | 8 kts | 60° |
| 2026-04-27 09:03 | -32.09290 | 115.88515 | 96 ft | 7 kts | 144° |
| 2026-04-27 09:04 | -32.09292 | 115.88517 | 92 ft | 0 kts | 144° |
| 2026-04-27 09:04 | -32.09296 | 115.88520 | 92 ft | 2 kts | 145° |
| 2026-04-27 09:04 | -32.09341 | 115.88531 | 91 ft | 9 kts | 217° |
| 2026-04-27 09:04 | -32.09381 | 115.88470 | 92 ft | 10 kts | 234° |
| 2026-04-27 09:05 | -32.09493 | 115.88286 | 92 ft | 53 kts | 234° |
| 2026-04-27 09:05 | -32.09765 | 115.87831 | 173 ft | 76 kts | 235° |
| 2026-04-27 09:05 | -32.10073 | 115.87296 | 378 ft | 79 kts | 237° |
| 2026-04-27 09:05 | -32.10370 | 115.86707 | 553 ft | 91 kts | 254° |
| 2026-04-27 09:06 | -32.10034 | 115.86071 | 666 ft | 103 kts | 339° |
| 2026-04-27 09:06 | -32.09321 | 115.86097 | 809 ft | 110 kts | 37° |
| 2026-04-27 09:06 | -32.08810 | 115.86778 | 759 ft | 107 kts | 58° |
| 2026-04-27 09:06 | -32.08395 | 115.87465 | 678 ft | 100 kts | 62° |
| 2026-04-27 09:07 | -32.08059 | 115.88128 | 553 ft | 90 kts | 64° |
| 2026-04-27 09:07 | -32.07893 | 115.88792 | 482 ft | 82 kts | 109° |
| 2026-04-27 09:07 | -32.08246 | 115.89293 | 429 ft | 80 kts | 142° |
| 2026-04-27 09:07 | -32.08685 | 115.89569 | 377 ft | 65 kts | 188° |
| 2026-04-27 09:08 | -32.08965 | 115.89177 | 267 ft | 66 kts | 240° |
| 2026-04-27 09:08 | -32.09219 | 115.88748 | 146 ft | 62 kts | 234° |
| 2026-04-27 09:08 | -32.09444 | 115.88363 | 92 ft | 49 kts | 233° |
| 2026-04-27 09:08 | -32.09501 | 115.88220 | 93 ft | 4 kts | 3° |
| 2026-04-27 09:09 | -32.09492 | 115.88216 | 94 ft | 0 kts | 326° |
| 2026-04-27 09:10 | -32.09491 | 115.88215 | 94 ft | 1 kts | 326° |
| 2026-04-27 09:10 | -32.09456 | 115.88190 | 95 ft | 10 kts | 344° |
| 2026-04-27 09:10 | -32.09396 | 115.88255 | 94 ft | 16 kts | 56° |
| 2026-04-27 09:10 | -32.09344 | 115.88344 | 94 ft | 5 kts | 69° |
| 2026-04-27 09:11 | -32.09363 | 115.88386 | 93 ft | 7 kts | 144° |
| 2026-04-27 09:11 | -32.09402 | 115.88412 | 90 ft | 8 kts | 169° |
| 2026-04-27 09:11 | -32.09464 | 115.88333 | 91 ft | 31 kts | 234° |
| 2026-04-27 09:11 | -32.09690 | 115.87967 | 117 ft | 72 kts | 233° |
| 2026-04-27 09:12 | -32.09988 | 115.87465 | 320 ft | 77 kts | 232° |
| 2026-04-27 09:12 | -32.10285 | 115.86945 | 583 ft | 76 kts | 246° |
| 2026-04-27 09:12 | -32.10108 | 115.86335 | 750 ft | 93 kts | 313° |
| 2026-04-27 09:12 | -32.09638 | 115.85783 | 961 ft | 97 kts | 310° |
| 2026-04-27 09:13 | -32.08997 | 115.85462 | 1000 ft | 110 kts | 11° |
| 2026-04-27 09:13 | -32.08363 | 115.85919 | 1007 ft | 110 kts | 56° |
| 2026-04-27 09:13 | -32.07951 | 115.86641 | 938 ft | 103 kts | 64° |
| 2026-04-27 09:13 | -32.07557 | 115.87325 | 932 ft | 102 kts | 61° |
| 2026-04-27 09:14 | -32.07153 | 115.88029 | 911 ft | 101 kts | 67° |
| 2026-04-27 09:14 | -32.07247 | 115.88717 | 784 ft | 93 kts | 147° |
| 2026-04-27 09:14 | -32.07772 | 115.88980 | 732 ft | 74 kts | 153° |
| 2026-04-27 09:14 | -32.08211 | 115.89280 | 571 ft | 71 kts | 155° |
| 2026-04-27 09:15 | -32.08657 | 115.89493 | 452 ft | 70 kts | 189° |
| 2026-04-27 09:15 | -32.08981 | 115.89112 | 294 ft | 67 kts | 234° |
| 2026-04-27 09:15 | -32.09264 | 115.88666 | 166 ft | 68 kts | 234° |
| 2026-04-27 09:15 | -32.09523 | 115.88234 | 95 ft | 54 kts | 233° |
| 2026-04-27 09:16 | -32.09786 | 115.87805 | 177 ft | 71 kts | 234° |
| 2026-04-27 09:16 | -32.10070 | 115.87341 | 392 ft | 71 kts | 232° |
| 2026-04-27 09:16 | -32.10336 | 115.86821 | 588 ft | 83 kts | 259° |
| 2026-04-27 09:16 | -32.10073 | 115.86172 | 746 ft | 96 kts | 304° |
| 2026-04-27 09:17 | -32.09580 | 115.85582 | 850 ft | 109 kts | 335° |
| 2026-04-27 09:17 | -32.08832 | 115.85757 | 827 ft | 115 kts | 46° |
| 2026-04-27 09:17 | -32.08309 | 115.86456 | 923 ft | 112 kts | 56° |
| 2026-04-27 09:17 | -32.07814 | 115.87151 | 900 ft | 110 kts | 57° |
| 2026-04-27 09:18 | -32.07326 | 115.87839 | 906 ft | 108 kts | 58° |
| 2026-04-27 09:18 | -32.07163 | 115.88587 | 780 ft | 91 kts | 127° |
| 2026-04-27 09:18 | -32.07547 | 115.89087 | 712 ft | 75 kts | 138° |
| 2026-04-27 09:18 | -32.07946 | 115.89523 | 535 ft | 77 kts | 143° |
| 2026-04-27 09:19 | -32.08388 | 115.89798 | 396 ft | 73 kts | 187° |
| 2026-04-27 09:19 | -32.08760 | 115.89464 | 296 ft | 66 kts | 230° |
| 2026-04-27 09:19 | -32.09038 | 115.89041 | 246 ft | 66 kts | 233° |
| 2026-04-27 09:19 | -32.09310 | 115.88591 | 134 ft | 67 kts | 233° |
| 2026-04-27 09:20 | -32.09546 | 115.88197 | 92 ft | 39 kts | 235° |
| 2026-04-27 09:20 | -32.09663 | 115.88007 | 95 ft | 13 kts | 240° |
| 2026-04-27 09:20 | -32.09644 | 115.87955 | 95 ft | 7 kts | 324° |
| 2026-04-27 09:20 | -32.09631 | 115.87945 | 95 ft | 0 kts | 326° |
| 2026-04-27 09:21 | -32.09614 | 115.87927 | 95 ft | 10 kts | 302° |
| 2026-04-27 09:21 | -32.09654 | 115.87834 | 95 ft | 16 kts | 234° |
| 2026-04-27 09:21 | -32.09729 | 115.87708 | 95 ft | 21 kts | 235° |
| 2026-04-27 09:21 | -32.09821 | 115.87558 | 95 ft | 23 kts | 235° |
| 2026-04-27 09:22 | -32.09889 | 115.87435 | 95 ft | 11 kts | 273° |
| 2026-04-27 09:22 | -32.09830 | 115.87381 | 96 ft | 12 kts | 282° |
| 2026-04-27 09:22 | -32.09882 | 115.87302 | 96 ft | 12 kts | 162° |
| 2026-04-27 09:22 | -32.09892 | 115.87314 | 96 ft | 0 kts | 111° |